sensor_id;sensor_type;location;lat;lon;timestamp;P1;durP1;ratioP1;P2;durP2;ratioP2
7525;SDS011;3804;50.860;6.208;2023-01-19T00:01:37;13.07;;;9.07;;
7525;SDS011;3804;50.860;6.208;2023-01-19T00:04:04;12.50;;;7.33;;
7525;SDS011;3804;50.860;6.208;2023-01-19T00:06:31;14.23;;;8.80;;
7525;SDS011;3804;50.860;6.208;2023-01-19T00:08:58;12.47;;;8.73;;
7525;SDS011;3804;50.860;6.208;2023-01-19T00:11:25;12.60;;;9.50;;
7525;SDS011;3804;50.860;6.208;2023-01-19T00:13:51;13.50;;;9.37;;
7525;SDS011;3804;50.860;6.208;2023-01-19T00:16:19;12.50;;;8.57;;
7525;SDS011;3804;50.860;6.208;2023-01-19T00:18:49;10.60;;;7.90;;
7525;SDS011;3804;50.860;6.208;2023-01-19T00:21:16;13.20;;;9.00;;
7525;SDS011;3804;50.860;6.208;2023-01-19T00:23:44;13.37;;;9.00;;
7525;SDS011;3804;50.860;6.208;2023-01-19T00:26:14;13.17;;;9.50;;
7525;SDS011;3804;50.860;6.208;2023-01-19T00:28:42;11.87;;;8.80;;
7525;SDS011;3804;50.860;6.208;2023-01-19T00:31:10;12.97;;;8.20;;
7525;SDS011;3804;50.860;6.208;2023-01-19T00:33:37;11.47;;;7.57;;
7525;SDS011;3804;50.860;6.208;2023-01-19T00:36:04;13.13;;;9.13;;
7525;SDS011;3804;50.860;6.208;2023-01-19T00:38:31;9.17;;;6.80;;
7525;SDS011;3804;50.860;6.208;2023-01-19T00:40:57;13.17;;;8.53;;
7525;SDS011;3804;50.860;6.208;2023-01-19T00:43:24;12.23;;;8.20;;
7525;SDS011;3804;50.860;6.208;2023-01-19T00:45:51;10.90;;;8.07;;
7525;SDS011;3804;50.860;6.208;2023-01-19T00:48:18;11.80;;;8.50;;
7525;SDS011;3804;50.860;6.208;2023-01-19T00:50:44;11.90;;;8.20;;
7525;SDS011;3804;50.860;6.208;2023-01-19T00:53:13;14.10;;;7.83;;
7525;SDS011;3804;50.860;6.208;2023-01-19T00:55:39;11.97;;;8.07;;
7525;SDS011;3804;50.860;6.208;2023-01-19T00:58:06;11.50;;;7.77;;
7525;SDS011;3804;50.860;6.208;2023-01-19T01:00:33;11.43;;;7.27;;
7525;SDS011;3804;50.860;6.208;2023-01-19T01:03:00;14.23;;;8.20;;
7525;SDS011;3804;50.860;6.208;2023-01-19T01:05:27;13.13;;;8.17;;
7525;SDS011;3804;50.860;6.208;2023-01-19T01:07:54;10.77;;;8.00;;
7525;SDS011;3804;50.860;6.208;2023-01-19T01:10:22;11.00;;;7.97;;
7525;SDS011;3804;50.860;6.208;2023-01-19T01:12:49;12.57;;;8.03;;
7525;SDS011;3804;50.860;6.208;2023-01-19T01:15:35;11.90;;;8.07;;
7525;SDS011;3804;50.860;6.208;2023-01-19T01:18:02;12.10;;;8.53;;
7525;SDS011;3804;50.860;6.208;2023-01-19T01:20:29;12.97;;;8.77;;
7525;SDS011;3804;50.860;6.208;2023-01-19T01:22:56;13.97;;;8.50;;
7525;SDS011;3804;50.860;6.208;2023-01-19T01:25:24;12.03;;;7.77;;
7525;SDS011;3804;50.860;6.208;2023-01-19T01:27:51;11.20;;;7.97;;
7525;SDS011;3804;50.860;6.208;2023-01-19T01:30:18;11.50;;;7.70;;
7525;SDS011;3804;50.860;6.208;2023-01-19T01:32:46;9.77;;;7.97;;
7525;SDS011;3804;50.860;6.208;2023-01-19T01:35:12;10.77;;;7.80;;
7525;SDS011;3804;50.860;6.208;2023-01-19T01:37:39;11.93;;;7.50;;
7525;SDS011;3804;50.860;6.208;2023-01-19T01:40:06;11.27;;;7.43;;
7525;SDS011;3804;50.860;6.208;2023-01-19T01:42:33;11.63;;;7.13;;
7525;SDS011;3804;50.860;6.208;2023-01-19T01:45:02;13.07;;;7.50;;
7525;SDS011;3804;50.860;6.208;2023-01-19T01:47:33;13.27;;;7.63;;
7525;SDS011;3804;50.860;6.208;2023-01-19T01:50:07;11.33;;;7.10;;
7525;SDS011;3804;50.860;6.208;2023-01-19T01:52:35;9.27;;;7.10;;
7525;SDS011;3804;50.860;6.208;2023-01-19T01:55:04;11.60;;;8.23;;
7525;SDS011;3804;50.860;6.208;2023-01-19T01:57:36;11.30;;;7.50;;
7525;SDS011;3804;50.860;6.208;2023-01-19T02:00:04;12.73;;;7.90;;
7525;SDS011;3804;50.860;6.208;2023-01-19T02:02:33;11.10;;;8.47;;
7525;SDS011;3804;50.860;6.208;2023-01-19T02:05:26;11.57;;;8.37;;
7525;SDS011;3804;50.860;6.208;2023-01-19T02:07:55;11.03;;;7.87;;
7525;SDS011;3804;50.860;6.208;2023-01-19T02:10:41;12.50;;;8.37;;
7525;SDS011;3804;50.860;6.208;2023-01-19T02:13:28;9.73;;;7.07;;
7525;SDS011;3804;50.860;6.208;2023-01-19T02:15:56;11.07;;;8.10;;
7525;SDS011;3804;50.860;6.208;2023-01-19T02:18:28;11.80;;;7.70;;
7525;SDS011;3804;50.860;6.208;2023-01-19T02:23:38;12.47;;;7.73;;
7525;SDS011;3804;50.860;6.208;2023-01-19T02:26:06;10.73;;;7.07;;
7525;SDS011;3804;50.860;6.208;2023-01-19T02:28:36;12.03;;;7.90;;
7525;SDS011;3804;50.860;6.208;2023-01-19T02:31:05;10.97;;;7.23;;
7525;SDS011;3804;50.860;6.208;2023-01-19T02:33:32;10.77;;;7.63;;
7525;SDS011;3804;50.860;6.208;2023-01-19T02:35:59;11.73;;;8.50;;
7525;SDS011;3804;50.860;6.208;2023-01-19T02:38:26;13.13;;;8.30;;
7525;SDS011;3804;50.860;6.208;2023-01-19T02:40:54;8.67;;;6.43;;
7525;SDS011;3804;50.860;6.208;2023-01-19T02:43:21;13.83;;;8.27;;
7525;SDS011;3804;50.860;6.208;2023-01-19T02:45:49;11.60;;;7.57;;
7525;SDS011;3804;50.860;6.208;2023-01-19T02:48:17;13.27;;;8.03;;
7525;SDS011;3804;50.860;6.208;2023-01-19T02:50:45;12.47;;;7.93;;
7525;SDS011;3804;50.860;6.208;2023-01-19T02:55:45;11.13;;;8.37;;
7525;SDS011;3804;50.860;6.208;2023-01-19T02:58:32;10.63;;;7.93;;
7525;SDS011;3804;50.860;6.208;2023-01-19T03:01:12;10.20;;;7.47;;
7525;SDS011;3804;50.860;6.208;2023-01-19T03:03:45;11.57;;;7.50;;
7525;SDS011;3804;50.860;6.208;2023-01-19T03:06:32;11.47;;;8.03;;
7525;SDS011;3804;50.860;6.208;2023-01-19T03:11:35;11.13;;;7.90;;
7525;SDS011;3804;50.860;6.208;2023-01-19T03:14:06;12.43;;;8.17;;
7525;SDS011;3804;50.860;6.208;2023-01-19T03:19:14;11.60;;;7.73;;
7525;SDS011;3804;50.860;6.208;2023-01-19T03:21:46;14.53;;;8.77;;
7525;SDS011;3804;50.860;6.208;2023-01-19T03:24:15;12.30;;;8.00;;
7525;SDS011;3804;50.860;6.208;2023-01-19T03:26:44;11.83;;;8.47;;
7525;SDS011;3804;50.860;6.208;2023-01-19T03:29:12;15.07;;;8.93;;
7525;SDS011;3804;50.860;6.208;2023-01-19T03:31:40;15.47;;;8.73;;
7525;SDS011;3804;50.860;6.208;2023-01-19T03:34:09;14.57;;;9.57;;
7525;SDS011;3804;50.860;6.208;2023-01-19T03:36:39;15.67;;;9.10;;
7525;SDS011;3804;50.860;6.208;2023-01-19T03:39:08;13.43;;;7.63;;
7525;SDS011;3804;50.860;6.208;2023-01-19T03:41:36;12.37;;;8.40;;
7525;SDS011;3804;50.860;6.208;2023-01-19T03:44:04;12.73;;;9.20;;
7525;SDS011;3804;50.860;6.208;2023-01-19T03:46:31;12.47;;;8.10;;
7525;SDS011;3804;50.860;6.208;2023-01-19T03:48:58;12.10;;;8.63;;
7525;SDS011;3804;50.860;6.208;2023-01-19T03:51:25;11.47;;;7.83;;
7525;SDS011;3804;50.860;6.208;2023-01-19T03:53:52;14.40;;;8.73;;
7525;SDS011;3804;50.860;6.208;2023-01-19T03:56:20;14.50;;;8.67;;
7525;SDS011;3804;50.860;6.208;2023-01-19T03:58:47;13.97;;;8.03;;
7525;SDS011;3804;50.860;6.208;2023-01-19T04:01:14;14.23;;;7.93;;
7525;SDS011;3804;50.860;6.208;2023-01-19T04:03:41;10.13;;;7.23;;
7525;SDS011;3804;50.860;6.208;2023-01-19T04:06:09;13.53;;;8.20;;
7525;SDS011;3804;50.860;6.208;2023-01-19T04:08:35;14.57;;;7.93;;
7525;SDS011;3804;50.860;6.208;2023-01-19T04:11:02;9.97;;;6.50;;
7525;SDS011;3804;50.860;6.208;2023-01-19T04:13:30;21.37;;;8.93;;
7525;SDS011;3804;50.860;6.208;2023-01-19T04:16:00;13.73;;;8.40;;
7525;SDS011;3804;50.860;6.208;2023-01-19T04:18:28;13.67;;;7.83;;
7525;SDS011;3804;50.860;6.208;2023-01-19T04:20:58;15.40;;;8.37;;
7525;SDS011;3804;50.860;6.208;2023-01-19T04:23:25;19.00;;;8.60;;
7525;SDS011;3804;50.860;6.208;2023-01-19T04:26:01;14.07;;;8.40;;
7525;SDS011;3804;50.860;6.208;2023-01-19T04:28:29;11.23;;;7.63;;
7525;SDS011;3804;50.860;6.208;2023-01-19T04:30:56;13.00;;;8.30;;
7525;SDS011;3804;50.860;6.208;2023-01-19T04:33:23;13.27;;;7.10;;
7525;SDS011;3804;50.860;6.208;2023-01-19T04:35:50;12.90;;;7.40;;
7525;SDS011;3804;50.860;6.208;2023-01-19T04:38:19;11.73;;;7.43;;
7525;SDS011;3804;50.860;6.208;2023-01-19T04:40:47;15.03;;;7.97;;
7525;SDS011;3804;50.860;6.208;2023-01-19T04:43:14;12.97;;;7.60;;
7525;SDS011;3804;50.860;6.208;2023-01-19T04:45:40;14.73;;;7.23;;
7525;SDS011;3804;50.860;6.208;2023-01-19T04:48:10;16.90;;;8.37;;
7525;SDS011;3804;50.860;6.208;2023-01-19T04:50:37;14.23;;;8.43;;
7525;SDS011;3804;50.860;6.208;2023-01-19T04:53:04;15.50;;;8.47;;
7525;SDS011;3804;50.860;6.208;2023-01-19T04:55:31;12.77;;;8.07;;
7525;SDS011;3804;50.860;6.208;2023-01-19T04:57:58;15.60;;;8.33;;
7525;SDS011;3804;50.860;6.208;2023-01-19T05:00:25;13.67;;;8.47;;
7525;SDS011;3804;50.860;6.208;2023-01-19T05:02:52;14.63;;;7.73;;
7525;SDS011;3804;50.860;6.208;2023-01-19T05:05:19;17.53;;;8.93;;
7525;SDS011;3804;50.860;6.208;2023-01-19T05:07:45;10.97;;;7.23;;
7525;SDS011;3804;50.860;6.208;2023-01-19T05:10:12;14.73;;;8.10;;
7525;SDS011;3804;50.860;6.208;2023-01-19T05:12:39;14.73;;;7.80;;
7525;SDS011;3804;50.860;6.208;2023-01-19T05:15:05;14.70;;;9.60;;
7525;SDS011;3804;50.860;6.208;2023-01-19T05:17:33;14.10;;;7.80;;
7525;SDS011;3804;50.860;6.208;2023-01-19T05:20:00;13.70;;;8.80;;
7525;SDS011;3804;50.860;6.208;2023-01-19T05:22:27;12.47;;;7.53;;
7525;SDS011;3804;50.860;6.208;2023-01-19T05:24:54;13.40;;;8.40;;
7525;SDS011;3804;50.860;6.208;2023-01-19T05:27:20;14.13;;;9.17;;
7525;SDS011;3804;50.860;6.208;2023-01-19T05:29:47;15.70;;;9.03;;
7525;SDS011;3804;50.860;6.208;2023-01-19T05:32:14;15.53;;;8.53;;
7525;SDS011;3804;50.860;6.208;2023-01-19T05:34:40;19.47;;;9.83;;
7525;SDS011;3804;50.860;6.208;2023-01-19T05:37:07;15.97;;;9.60;;
7525;SDS011;3804;50.860;6.208;2023-01-19T05:39:34;17.70;;;9.83;;
7525;SDS011;3804;50.860;6.208;2023-01-19T05:42:01;15.07;;;9.70;;
7525;SDS011;3804;50.860;6.208;2023-01-19T05:44:28;15.57;;;10.00;;
7525;SDS011;3804;50.860;6.208;2023-01-19T05:46:55;16.37;;;9.07;;
7525;SDS011;3804;50.860;6.208;2023-01-19T05:49:21;18.43;;;8.37;;
7525;SDS011;3804;50.860;6.208;2023-01-19T05:51:49;18.40;;;9.87;;
7525;SDS011;3804;50.860;6.208;2023-01-19T05:54:15;15.73;;;9.90;;
7525;SDS011;3804;50.860;6.208;2023-01-19T05:56:42;17.37;;;10.17;;
7525;SDS011;3804;50.860;6.208;2023-01-19T05:59:09;16.73;;;9.93;;
7525;SDS011;3804;50.860;6.208;2023-01-19T06:01:36;17.77;;;9.97;;
7525;SDS011;3804;50.860;6.208;2023-01-19T06:04:05;17.60;;;9.67;;
7525;SDS011;3804;50.860;6.208;2023-01-19T06:06:32;22.40;;;11.73;;
7525;SDS011;3804;50.860;6.208;2023-01-19T06:08:59;20.47;;;10.77;;
7525;SDS011;3804;50.860;6.208;2023-01-19T06:11:25;21.40;;;10.63;;
7525;SDS011;3804;50.860;6.208;2023-01-19T06:13:52;20.17;;;10.97;;
7525;SDS011;3804;50.860;6.208;2023-01-19T06:16:19;20.87;;;10.17;;
7525;SDS011;3804;50.860;6.208;2023-01-19T06:18:46;16.57;;;9.67;;
7525;SDS011;3804;50.860;6.208;2023-01-19T06:21:12;20.33;;;10.37;;
7525;SDS011;3804;50.860;6.208;2023-01-19T06:23:39;20.03;;;10.70;;
7525;SDS011;3804;50.860;6.208;2023-01-19T06:26:07;20.30;;;10.37;;
7525;SDS011;3804;50.860;6.208;2023-01-19T06:28:34;22.30;;;11.40;;
7525;SDS011;3804;50.860;6.208;2023-01-19T06:31:00;19.50;;;10.57;;
7525;SDS011;3804;50.860;6.208;2023-01-19T06:33:27;25.23;;;11.83;;
7525;SDS011;3804;50.860;6.208;2023-01-19T06:35:54;19.23;;;11.87;;
7525;SDS011;3804;50.860;6.208;2023-01-19T06:38:21;19.97;;;11.50;;
7525;SDS011;3804;50.860;6.208;2023-01-19T06:40:52;25.77;;;12.50;;
7525;SDS011;3804;50.860;6.208;2023-01-19T06:43:19;24.77;;;13.10;;
7525;SDS011;3804;50.860;6.208;2023-01-19T06:45:46;23.20;;;11.97;;
7525;SDS011;3804;50.860;6.208;2023-01-19T06:48:13;19.43;;;12.10;;
7525;SDS011;3804;50.860;6.208;2023-01-19T06:50:40;30.97;;;12.40;;
7525;SDS011;3804;50.860;6.208;2023-01-19T06:53:07;25.00;;;13.10;;
7525;SDS011;3804;50.860;6.208;2023-01-19T06:55:34;25.73;;;12.27;;
7525;SDS011;3804;50.860;6.208;2023-01-19T06:58:05;27.20;;;13.30;;
7525;SDS011;3804;50.860;6.208;2023-01-19T07:00:31;31.83;;;13.50;;
7525;SDS011;3804;50.860;6.208;2023-01-19T07:02:59;29.07;;;12.97;;
7525;SDS011;3804;50.860;6.208;2023-01-19T07:05:26;34.30;;;13.60;;
7525;SDS011;3804;50.860;6.208;2023-01-19T07:07:53;27.67;;;12.13;;
7525;SDS011;3804;50.860;6.208;2023-01-19T07:10:20;29.10;;;13.57;;
7525;SDS011;3804;50.860;6.208;2023-01-19T07:12:47;24.23;;;12.37;;
7525;SDS011;3804;50.860;6.208;2023-01-19T07:15:16;25.87;;;13.00;;
7525;SDS011;3804;50.860;6.208;2023-01-19T07:17:45;21.60;;;13.13;;
7525;SDS011;3804;50.860;6.208;2023-01-19T07:20:12;23.57;;;12.73;;
7525;SDS011;3804;50.860;6.208;2023-01-19T07:22:40;23.50;;;13.10;;
7525;SDS011;3804;50.860;6.208;2023-01-19T07:25:07;23.23;;;13.13;;
7525;SDS011;3804;50.860;6.208;2023-01-19T07:27:34;26.00;;;13.37;;
7525;SDS011;3804;50.860;6.208;2023-01-19T07:30:01;26.53;;;14.53;;
7525;SDS011;3804;50.860;6.208;2023-01-19T07:32:28;29.10;;;14.17;;
7525;SDS011;3804;50.860;6.208;2023-01-19T07:34:54;33.07;;;13.97;;
7525;SDS011;3804;50.860;6.208;2023-01-19T07:37:21;27.97;;;13.57;;
7525;SDS011;3804;50.860;6.208;2023-01-19T07:39:48;26.80;;;13.77;;
7525;SDS011;3804;50.860;6.208;2023-01-19T07:42:14;24.20;;;14.47;;
7525;SDS011;3804;50.860;6.208;2023-01-19T07:44:41;23.67;;;14.97;;
7525;SDS011;3804;50.860;6.208;2023-01-19T07:47:08;29.30;;;15.13;;
7525;SDS011;3804;50.860;6.208;2023-01-19T07:49:38;25.13;;;14.63;;
7525;SDS011;3804;50.860;6.208;2023-01-19T07:52:05;29.83;;;15.20;;
7525;SDS011;3804;50.860;6.208;2023-01-19T07:54:31;27.03;;;15.03;;
7525;SDS011;3804;50.860;6.208;2023-01-19T07:56:59;27.87;;;14.60;;
7525;SDS011;3804;50.860;6.208;2023-01-19T07:59:28;28.13;;;15.40;;
7525;SDS011;3804;50.860;6.208;2023-01-19T08:01:57;30.53;;;15.47;;
7525;SDS011;3804;50.860;6.208;2023-01-19T08:04:25;32.73;;;16.77;;
7525;SDS011;3804;50.860;6.208;2023-01-19T08:06:52;28.50;;;15.87;;
7525;SDS011;3804;50.860;6.208;2023-01-19T08:09:19;26.07;;;14.63;;
7525;SDS011;3804;50.860;6.208;2023-01-19T08:11:46;27.57;;;15.20;;
7525;SDS011;3804;50.860;6.208;2023-01-19T08:14:13;26.63;;;12.63;;
7525;SDS011;3804;50.860;6.208;2023-01-19T08:16:39;0.30;;;0.30;;
7525;SDS011;3804;50.860;6.208;2023-01-19T08:19:06;0.30;;;0.30;;
7525;SDS011;3804;50.860;6.208;2023-01-19T08:21:33;0.20;;;0.20;;
7525;SDS011;3804;50.860;6.208;2023-01-19T08:24:01;0.10;;;0.10;;
7525;SDS011;3804;50.860;6.208;2023-01-19T08:26:29;0.20;;;0.20;;
7525;SDS011;3804;50.860;6.208;2023-01-19T08:28:56;0.20;;;0.20;;
7525;SDS011;3804;50.860;6.208;2023-01-19T08:31:24;0.20;;;0.20;;
7525;SDS011;3804;50.860;6.208;2023-01-19T08:33:51;0.13;;;0.13;;
7525;SDS011;3804;50.860;6.208;2023-01-19T08:36:18;0.20;;;0.20;;
7525;SDS011;3804;50.860;6.208;2023-01-19T08:38:45;0.17;;;0.17;;
7525;SDS011;3804;50.860;6.208;2023-01-19T08:41:12;0.20;;;0.20;;
7525;SDS011;3804;50.860;6.208;2023-01-19T08:43:39;0.13;;;0.13;;
7525;SDS011;3804;50.860;6.208;2023-01-19T08:46:05;0.20;;;0.20;;
7525;SDS011;3804;50.860;6.208;2023-01-19T08:48:32;0.10;;;0.10;;
7525;SDS011;3804;50.860;6.208;2023-01-19T08:50:59;0.20;;;0.20;;
7525;SDS011;3804;50.860;6.208;2023-01-19T08:53:26;0.20;;;0.20;;
7525;SDS011;3804;50.860;6.208;2023-01-19T08:55:53;0.10;;;0.10;;
7525;SDS011;3804;50.860;6.208;2023-01-19T08:58:20;0.30;;;0.30;;
7525;SDS011;3804;50.860;6.208;2023-01-19T09:00:47;0.20;;;0.20;;
7525;SDS011;3804;50.860;6.208;2023-01-19T09:03:14;0.20;;;0.20;;
7525;SDS011;3804;50.860;6.208;2023-01-19T09:05:41;0.20;;;0.20;;
7525;SDS011;3804;50.860;6.208;2023-01-19T09:08:09;0.20;;;0.20;;
7525;SDS011;3804;50.860;6.208;2023-01-19T09:10:36;0.20;;;0.20;;
7525;SDS011;3804;50.860;6.208;2023-01-19T09:13:04;0.20;;;0.20;;
7525;SDS011;3804;50.860;6.208;2023-01-19T09:15:31;0.10;;;0.10;;
7525;SDS011;3804;50.860;6.208;2023-01-19T09:18:01;0.20;;;0.20;;
7525;SDS011;3804;50.860;6.208;2023-01-19T09:20:28;0.20;;;0.20;;
7525;SDS011;3804;50.860;6.208;2023-01-19T09:22:56;0.87;;;0.87;;
7525;SDS011;3804;50.860;6.208;2023-01-19T09:25:24;0.10;;;0.10;;
7525;SDS011;3804;50.860;6.208;2023-01-19T09:27:51;0.13;;;0.13;;
7525;SDS011;3804;50.860;6.208;2023-01-19T09:30:18;0.20;;;0.20;;
7525;SDS011;3804;50.860;6.208;2023-01-19T09:32:45;0.20;;;0.20;;
7525;SDS011;3804;50.860;6.208;2023-01-19T09:35:12;0.17;;;0.17;;
7525;SDS011;3804;50.860;6.208;2023-01-19T09:37:39;0.30;;;0.30;;
7525;SDS011;3804;50.860;6.208;2023-01-19T09:40:06;0.20;;;0.20;;
7525;SDS011;3804;50.860;6.208;2023-01-19T09:42:42;0.10;;;0.10;;
7525;SDS011;3804;50.860;6.208;2023-01-19T09:45:15;1.23;;;1.13;;
7525;SDS011;3804;50.860;6.208;2023-01-19T09:47:44;0.20;;;0.20;;
7525;SDS011;3804;50.860;6.208;2023-01-19T09:50:16;0.20;;;0.20;;
7525;SDS011;3804;50.860;6.208;2023-01-19T09:52:47;0.10;;;0.10;;
7525;SDS011;3804;50.860;6.208;2023-01-19T09:55:19;0.20;;;0.20;;
7525;SDS011;3804;50.860;6.208;2023-01-19T09:57:46;0.20;;;0.20;;
7525;SDS011;3804;50.860;6.208;2023-01-19T10:00:16;0.20;;;0.20;;
7525;SDS011;3804;50.860;6.208;2023-01-19T10:02:43;0.20;;;0.20;;
7525;SDS011;3804;50.860;6.208;2023-01-19T10:10:35;0.20;;;0.20;;
7525;SDS011;3804;50.860;6.208;2023-01-19T10:13:13;0.10;;;0.10;;
7525;SDS011;3804;50.860;6.208;2023-01-19T10:20:44;1.70;;;1.60;;
7525;SDS011;3804;50.860;6.208;2023-01-19T10:23:17;0.40;;;0.40;;
7525;SDS011;3804;50.860;6.208;2023-01-19T10:25:45;0.20;;;0.20;;
7525;SDS011;3804;50.860;6.208;2023-01-19T10:28:12;0.20;;;0.20;;
7525;SDS011;3804;50.860;6.208;2023-01-19T10:30:39;1.50;;;1.40;;
7525;SDS011;3804;50.860;6.208;2023-01-19T10:33:10;0.20;;;0.20;;
7525;SDS011;3804;50.860;6.208;2023-01-19T10:35:37;0.17;;;0.17;;
7525;SDS011;3804;50.860;6.208;2023-01-19T10:38:04;0.20;;;0.20;;
7525;SDS011;3804;50.860;6.208;2023-01-19T10:40:32;0.20;;;0.20;;
7525;SDS011;3804;50.860;6.208;2023-01-19T10:43:01;0.20;;;0.20;;
7525;SDS011;3804;50.860;6.208;2023-01-19T10:45:48;2.37;;;1.50;;
7525;SDS011;3804;50.860;6.208;2023-01-19T10:48:15;0.20;;;0.20;;
7525;SDS011;3804;50.860;6.208;2023-01-19T10:50:42;0.20;;;0.20;;
7525;SDS011;3804;50.860;6.208;2023-01-19T10:53:18;0.10;;;0.10;;
7525;SDS011;3804;50.860;6.208;2023-01-19T10:55:45;0.33;;;0.33;;
7525;SDS011;3804;50.860;6.208;2023-01-19T10:58:26;0.40;;;0.40;;
7525;SDS011;3804;50.860;6.208;2023-01-19T11:00:53;0.20;;;0.20;;
7525;SDS011;3804;50.860;6.208;2023-01-19T11:03:23;3.90;;;2.63;;
7525;SDS011;3804;50.860;6.208;2023-01-19T11:05:50;0.20;;;0.20;;
7525;SDS011;3804;50.860;6.208;2023-01-19T11:08:27;0.20;;;0.20;;
7525;SDS011;3804;50.860;6.208;2023-01-19T11:10:58;0.10;;;0.10;;
7525;SDS011;3804;50.860;6.208;2023-01-19T11:13:27;0.20;;;0.20;;
7525;SDS011;3804;50.860;6.208;2023-01-19T11:15:55;0.67;;;0.67;;
7525;SDS011;3804;50.860;6.208;2023-01-19T11:18:35;0.20;;;0.20;;
7525;SDS011;3804;50.860;6.208;2023-01-19T11:21:03;0.20;;;0.20;;
7525;SDS011;3804;50.860;6.208;2023-01-19T11:23:44;0.10;;;0.10;;
7525;SDS011;3804;50.860;6.208;2023-01-19T11:26:12;0.20;;;0.20;;
7525;SDS011;3804;50.860;6.208;2023-01-19T11:28:44;0.60;;;0.60;;
7525;SDS011;3804;50.860;6.208;2023-01-19T11:33:42;0.20;;;0.20;;
7525;SDS011;3804;50.860;6.208;2023-01-19T11:36:37;0.20;;;0.20;;
7525;SDS011;3804;50.860;6.208;2023-01-19T11:39:22;0.20;;;0.20;;
7525;SDS011;3804;50.860;6.208;2023-01-19T11:41:55;0.20;;;0.20;;
7525;SDS011;3804;50.860;6.208;2023-01-19T11:44:30;0.20;;;0.20;;
7525;SDS011;3804;50.860;6.208;2023-01-19T11:46:58;0.20;;;0.20;;
7525;SDS011;3804;50.860;6.208;2023-01-19T11:52:26;34.07;;;17.60;;
7525;SDS011;3804;50.860;6.208;2023-01-19T11:54:55;35.40;;;17.57;;
7525;SDS011;3804;50.860;6.208;2023-01-19T11:57:23;29.80;;;17.00;;
7525;SDS011;3804;50.860;6.208;2023-01-19T11:59:50;31.70;;;17.47;;
7525;SDS011;3804;50.860;6.208;2023-01-19T12:02:24;35.63;;;17.40;;
7525;SDS011;3804;50.860;6.208;2023-01-19T12:04:54;33.87;;;16.40;;
7525;SDS011;3804;50.860;6.208;2023-01-19T12:07:24;35.57;;;16.30;;
7525;SDS011;3804;50.860;6.208;2023-01-19T12:09:54;34.03;;;16.23;;
7525;SDS011;3804;50.860;6.208;2023-01-19T12:14:53;29.07;;;14.47;;
7525;SDS011;3804;50.860;6.208;2023-01-19T12:17:29;27.77;;;15.97;;
7525;SDS011;3804;50.860;6.208;2023-01-19T12:22:35;29.03;;;15.73;;
7525;SDS011;3804;50.860;6.208;2023-01-19T12:25:05;27.07;;;15.63;;
7525;SDS011;3804;50.860;6.208;2023-01-19T12:27:41;29.03;;;16.03;;
7525;SDS011;3804;50.860;6.208;2023-01-19T12:32:41;33.37;;;17.00;;
7525;SDS011;3804;50.860;6.208;2023-01-19T12:37:54;25.17;;;14.07;;
7525;SDS011;3804;50.860;6.208;2023-01-19T12:40:27;25.20;;;14.73;;
7525;SDS011;3804;50.860;6.208;2023-01-19T12:42:56;27.37;;;14.73;;
7525;SDS011;3804;50.860;6.208;2023-01-19T12:45:23;26.70;;;15.43;;
7525;SDS011;3804;50.860;6.208;2023-01-19T12:47:54;23.20;;;13.83;;
7525;SDS011;3804;50.860;6.208;2023-01-19T12:50:22;23.53;;;14.03;;
7525;SDS011;3804;50.860;6.208;2023-01-19T12:52:55;27.27;;;15.23;;
7525;SDS011;3804;50.860;6.208;2023-01-19T13:00:31;25.73;;;14.13;;
7525;SDS011;3804;50.860;6.208;2023-01-19T13:03:45;25.13;;;14.70;;
7525;SDS011;3804;50.860;6.208;2023-01-19T13:05:54;21.00;;;14.10;;
7525;SDS011;3804;50.860;6.208;2023-01-19T13:08:22;27.50;;;16.20;;
7525;SDS011;3804;50.860;6.208;2023-01-19T13:15:46;23.00;;;11.83;;
7525;SDS011;3804;50.860;6.208;2023-01-19T13:18:23;20.77;;;12.63;;
7525;SDS011;3804;50.860;6.208;2023-01-19T13:20:57;23.93;;;12.87;;
7525;SDS011;3804;50.860;6.208;2023-01-19T13:23:50;20.77;;;11.33;;
7525;SDS011;3804;50.860;6.208;2023-01-19T13:26:19;21.10;;;11.07;;
7525;SDS011;3804;50.860;6.208;2023-01-19T13:28:54;21.73;;;11.87;;
7525;SDS011;3804;50.860;6.208;2023-01-19T13:31:21;20.63;;;11.43;;
7525;SDS011;3804;50.860;6.208;2023-01-19T13:33:52;20.93;;;11.80;;
7525;SDS011;3804;50.860;6.208;2023-01-19T13:36:21;20.97;;;10.87;;
7525;SDS011;3804;50.860;6.208;2023-01-19T13:38:49;16.87;;;10.83;;
7525;SDS011;3804;50.860;6.208;2023-01-19T13:41:17;16.00;;;9.27;;
7525;SDS011;3804;50.860;6.208;2023-01-19T13:43:44;18.37;;;10.47;;
7525;SDS011;3804;50.860;6.208;2023-01-19T13:46:11;15.67;;;10.03;;
7525;SDS011;3804;50.860;6.208;2023-01-19T13:48:39;15.80;;;9.53;;
7525;SDS011;3804;50.860;6.208;2023-01-19T13:51:17;16.43;;;9.60;;
7525;SDS011;3804;50.860;6.208;2023-01-19T13:53:56;14.97;;;8.77;;
7525;SDS011;3804;50.860;6.208;2023-01-19T13:56:25;17.47;;;9.73;;
7525;SDS011;3804;50.860;6.208;2023-01-19T13:59:01;16.30;;;9.90;;
7525;SDS011;3804;50.860;6.208;2023-01-19T14:01:36;16.07;;;9.70;;
7525;SDS011;3804;50.860;6.208;2023-01-19T14:04:03;19.47;;;10.30;;
7525;SDS011;3804;50.860;6.208;2023-01-19T14:06:31;15.23;;;9.00;;
7525;SDS011;3804;50.860;6.208;2023-01-19T14:09:11;16.07;;;9.20;;
7525;SDS011;3804;50.860;6.208;2023-01-19T14:11:46;13.43;;;8.67;;
7525;SDS011;3804;50.860;6.208;2023-01-19T14:14:25;17.23;;;9.37;;
7525;SDS011;3804;50.860;6.208;2023-01-19T14:16:52;18.27;;;9.37;;
7525;SDS011;3804;50.860;6.208;2023-01-19T14:19:20;20.33;;;9.10;;
7525;SDS011;3804;50.860;6.208;2023-01-19T14:21:56;16.63;;;8.97;;
7525;SDS011;3804;50.860;6.208;2023-01-19T14:24:23;14.93;;;8.47;;
7525;SDS011;3804;50.860;6.208;2023-01-19T14:26:51;18.57;;;10.13;;
7525;SDS011;3804;50.860;6.208;2023-01-19T14:37:02;19.00;;;10.53;;
7525;SDS011;3804;50.860;6.208;2023-01-19T14:39:30;15.40;;;9.70;;
7525;SDS011;3804;50.860;6.208;2023-01-19T14:42:02;20.13;;;10.03;;
7525;SDS011;3804;50.860;6.208;2023-01-19T14:44:31;15.80;;;8.50;;
7525;SDS011;3804;50.860;6.208;2023-01-19T14:46:59;17.60;;;9.67;;
7525;SDS011;3804;50.860;6.208;2023-01-19T14:49:37;17.00;;;9.67;;
7525;SDS011;3804;50.860;6.208;2023-01-19T14:52:27;18.07;;;10.40;;
7525;SDS011;3804;50.860;6.208;2023-01-19T14:54:51;18.80;;;9.67;;
7525;SDS011;3804;50.860;6.208;2023-01-19T14:57:19;18.93;;;9.53;;
7525;SDS011;3804;50.860;6.208;2023-01-19T14:59:46;17.37;;;9.20;;
7525;SDS011;3804;50.860;6.208;2023-01-19T15:02:15;17.83;;;9.33;;
7525;SDS011;3804;50.860;6.208;2023-01-19T15:04:45;17.00;;;9.20;;
7525;SDS011;3804;50.860;6.208;2023-01-19T15:07:17;17.23;;;9.47;;
7525;SDS011;3804;50.860;6.208;2023-01-19T15:09:45;14.10;;;8.97;;
7525;SDS011;3804;50.860;6.208;2023-01-19T15:12:13;18.10;;;12.03;;
7525;SDS011;3804;50.860;6.208;2023-01-19T15:14:43;16.87;;;9.00;;
7525;SDS011;3804;50.860;6.208;2023-01-19T15:17:14;26.13;;;15.47;;
7525;SDS011;3804;50.860;6.208;2023-01-19T15:19:42;25.47;;;10.53;;
7525;SDS011;3804;50.860;6.208;2023-01-19T15:22:10;25.90;;;16.93;;
7525;SDS011;3804;50.860;6.208;2023-01-19T15:24:37;24.30;;;15.57;;
7525;SDS011;3804;50.860;6.208;2023-01-19T15:27:07;24.20;;;13.20;;
7525;SDS011;3804;50.860;6.208;2023-01-19T15:29:34;19.67;;;10.57;;
7525;SDS011;3804;50.860;6.208;2023-01-19T15:32:01;30.97;;;17.90;;
7525;SDS011;3804;50.860;6.208;2023-01-19T15:34:29;17.00;;;8.87;;
7525;SDS011;3804;50.860;6.208;2023-01-19T15:36:56;15.37;;;7.80;;
7525;SDS011;3804;50.860;6.208;2023-01-19T15:39:23;14.63;;;8.53;;
7525;SDS011;3804;50.860;6.208;2023-01-19T15:41:51;16.30;;;8.27;;
7525;SDS011;3804;50.860;6.208;2023-01-19T15:44:18;15.60;;;7.30;;
7525;SDS011;3804;50.860;6.208;2023-01-19T15:46:44;13.67;;;7.67;;
7525;SDS011;3804;50.860;6.208;2023-01-19T15:49:11;12.13;;;7.03;;
7525;SDS011;3804;50.860;6.208;2023-01-19T15:51:38;12.23;;;7.77;;
7525;SDS011;3804;50.860;6.208;2023-01-19T15:54:07;12.20;;;6.93;;
7525;SDS011;3804;50.860;6.208;2023-01-19T15:56:35;12.00;;;6.80;;
7525;SDS011;3804;50.860;6.208;2023-01-19T15:59:02;11.37;;;6.43;;
7525;SDS011;3804;50.860;6.208;2023-01-19T16:01:28;13.23;;;7.43;;
7525;SDS011;3804;50.860;6.208;2023-01-19T16:04:01;15.43;;;8.23;;
7525;SDS011;3804;50.860;6.208;2023-01-19T16:06:28;18.50;;;9.83;;